Time;durP1;ratioP1;P1;durP2;ratioP2;P2;SDS_P1;SDS_P2;PMS_P1;PMS_P2;Temp;Humidity;BMP_temperature;BMP_pressure;BME280_temperature;BME280_humidity;BME280_pressure;Samples;Min_cycle;Max_cycle;Signal;HPM_P1;HPM_P2
2022/01/20 00:02:18;;;;;;;5.85;3.67;;;;;;;;;;4900067;29;20115;-74
2022/01/20 00:04:50;;;;;;;5.72;3.42;;;;;;;;;;4917125;29;20202;-74
2022/01/20 00:07:33;;;;;;;7.55;4.25;;;;;;;;;;4899693;29;20063;-72
2022/01/20 00:26:27;;;;;;;6.32;3.47;;;;;;;;;;4916135;29;20032;-72
2022/01/20 00:28:55;;;;;;;7.00;3.40;;;;;;;;;;4916069;29;20032;-73
2022/01/20 00:31:44;;;;;;;6.95;3.53;;;;;;;;;;4898686;29;20039;-72
2022/01/20 00:34:13;;;;;;;6.45;3.60;;;;;;;;;;4916152;29;20023;-72
2022/01/20 00:39:23;;;;;;;9.68;3.78;;;;;;;;;;4916391;29;20157;-74
2022/01/20 00:41:48;;;;;;;6.90;3.65;;;;;;;;;;4915878;29;20059;-73
2022/01/20 00:44:13;;;;;;;7.32;4.10;;;;;;;;;;4915869;29;20477;-74
2022/01/20 00:46:38;;;;;;;6.60;3.83;;;;;;;;;;4915594;29;20584;-74
2022/01/20 00:49:04;;;;;;;7.93;4.20;;;;;;;;;;4917312;29;20035;-74
2022/01/20 00:51:29;;;;;;;8.90;4.95;;;;;;;;;;4919401;29;20036;-75
2022/01/20 00:53:54;;;;;;;9.93;4.85;;;;;;;;;;4902291;29;20023;-74
2022/01/20 00:56:19;;;;;;;9.93;4.22;;;;;;;;;;4902559;29;20028;-73
2022/01/20 00:58:44;;;;;;;9.63;4.03;;;;;;;;;;4918237;29;20441;-73
2022/01/20 01:01:10;;;;;;;7.85;3.80;;;;;;;;;;4919382;29;20122;-74
2022/01/20 01:03:35;;;;;;;8.35;3.92;;;;;;;;;;4919054;29;20039;-72
2022/01/20 01:08:44;;;;;;;14.18;4.18;;;;;;;;;;4919128;29;20557;-73
2022/01/20 01:11:09;;;;;;;10.85;4.40;;;;;;;;;;4918257;29;20123;-75
2022/01/20 01:13:34;;;;;;;7.43;3.75;;;;;;;;;;4917616;29;20016;-73
2022/01/20 01:16:00;;;;;;;6.40;3.45;;;;;;;;;;4919070;29;20024;-74
2022/01/20 01:21:16;;;;;;;8.05;3.50;;;;;;;;;;4918927;29;20147;-74
2022/01/20 01:23:44;;;;;;;9.90;3.50;;;;;;;;;;4901758;29;20103;-74
2022/01/20 01:26:11;;;;;;;14.82;3.10;;;;;;;;;;4918635;29;20028;-74
2022/01/20 01:28:36;;;;;;;9.32;2.90;;;;;;;;;;4918735;29;20028;-72
2022/01/20 01:33:49;;;;;;;12.05;3.00;;;;;;;;;;4918816;29;20025;-73
2022/01/20 01:36:18;;;;;;;10.13;3.17;;;;;;;;;;4901842;29;20489;-74
2022/01/20 01:38:43;;;;;;;12.57;3.17;;;;;;;;;;4918384;29;20032;-74
2022/01/20 01:41:12;;;;;;;9.70;2.14;;;;;;;;;;4918517;29;20055;-74
2022/01/20 01:43:41;;;;;;;10.50;2.78;;;;;;;;;;4901828;29;20024;-72
2022/01/20 01:46:06;;;;;;;8.35;3.08;;;;;;;;;;4902354;29;20055;-74
2022/01/20 01:48:31;;;;;;;10.95;2.80;;;;;;;;;;4918438;29;20028;-72
2022/01/20 01:50:59;;;;;;;13.75;2.92;;;;;;;;;;4918415;29;20496;-74
2022/01/20 01:53:24;;;;;;;12.52;2.85;;;;;;;;;;4901272;29;20025;-72
2022/01/20 01:55:50;;;;;;;8.75;2.40;;;;;;;;;;4918266;29;20027;-72
2022/01/20 01:58:15;;;;;;;15.02;2.78;;;;;;;;;;4918211;29;20050;-73
2022/01/20 02:00:41;;;;;;;19.80;2.40;;;;;;;;;;4917910;29;20103;-73
2022/01/20 02:03:06;;;;;;;10.18;2.53;;;;;;;;;;4918038;29;20443;-72
2022/01/20 02:05:33;;;;;;;11.05;2.55;;;;;;;;;;4918122;29;20030;-72
2022/01/20 02:08:25;;;;;;;17.20;2.28;;;;;;;;;;4918529;29;20273;-73
2022/01/20 02:19:07;;;;;;;14.23;1.55;;;;;;;;;;4918404;29;20129;-74
2022/01/20 02:21:32;;;;;;;13.05;1.75;;;;;;;;;;4917878;29;20107;-73
2022/01/20 02:23:57;;;;;;;12.75;2.47;;;;;;;;;;4917700;29;20024;-72
2022/01/20 02:26:23;;;;;;;10.27;1.85;;;;;;;;;;4917719;29;20031;-72
2022/01/20 02:28:48;;;;;;;11.75;1.40;;;;;;;;;;4917590;29;20036;-73
2022/01/20 02:31:14;;;;;;;12.73;1.83;;;;;;;;;;4918042;29;20024;-72
2022/01/20 02:33:39;;;;;;;15.90;1.58;;;;;;;;;;4917669;29;20450;-73
2022/01/20 02:36:09;;;;;;;11.27;1.08;;;;;;;;;;4917588;29;20020;-75
2022/01/20 02:46:31;;;;;;;4.35;1.60;;;;;;;;;;4917456;29;20031;-72
2022/01/20 02:48:57;;;;;;;9.57;2.28;;;;;;;;;;4917502;29;20019;-72
2022/01/20 02:51:22;;;;;;;5.97;2.08;;;;;;;;;;4917444;29;20031;-73
2022/01/20 02:53:47;;;;;;;13.93;2.40;;;;;;;;;;4917263;29;20465;-73
2022/01/20 02:56:13;;;;;;;7.28;1.90;;;;;;;;;;4917324;29;20084;-73
2022/01/20 02:58:38;;;;;;;8.95;1.85;;;;;;;;;;4917334;29;20020;-73
2022/01/20 03:01:03;;;;;;;13.38;2.40;;;;;;;;;;4900295;29;20083;-72
2022/01/20 03:03:29;;;;;;;10.45;2.22;;;;;;;;;;4918271;29;20028;-74
2022/01/20 03:05:54;;;;;;;8.88;1.90;;;;;;;;;;4900302;29;20064;-73
2022/01/20 03:08:19;;;;;;;9.95;2.10;;;;;;;;;;4917037;29;20114;-72
2022/01/20 03:10:45;;;;;;;8.98;2.03;;;;;;;;;;4916974;29;20452;-72
2022/01/20 03:13:10;;;;;;;6.88;1.60;;;;;;;;;;4916620;29;20494;-73
2022/01/20 03:15:35;;;;;;;10.52;2.05;;;;;;;;;;4917717;29;20032;-74
2022/01/20 03:18:01;;;;;;;12.82;1.98;;;;;;;;;;4917247;29;20025;-73
2022/01/20 03:20:27;;;;;;;8.75;2.42;;;;;;;;;;4916824;29;20028;-75
2022/01/20 03:22:52;;;;;;;7.13;1.63;;;;;;;;;;4916553;29;20385;-74
2022/01/20 03:25:17;;;;;;;10.15;2.13;;;;;;;;;;4900057;29;20083;-73
2022/01/20 03:27:42;;;;;;;8.85;1.45;;;;;;;;;;4916767;29;20468;-74
2022/01/20 03:30:08;;;;;;;6.78;1.85;;;;;;;;;;4916669;29;20051;-72
2022/01/20 03:32:34;;;;;;;13.93;2.22;;;;;;;;;;4916698;29;20020;-74
2022/01/20 03:34:59;;;;;;;11.70;2.13;;;;;;;;;;4900001;29;20670;-74
2022/01/20 03:37:25;;;;;;;14.30;2.65;;;;;;;;;;4899817;29;20107;-73
2022/01/20 03:39:50;;;;;;;15.02;1.90;;;;;;;;;;4967904;23;20071;-83
2022/01/20 03:42:15;;;;;;;26.45;2.70;;;;;;;;;;4939492;29;20079;-81
2022/01/20 03:44:41;;;;;;;11.90;1.90;;;;;;;;;;4937547;29;20048;-84
2022/01/20 03:47:08;;;;;;;15.05;2.75;;;;;;;;;;4928183;29;20381;-86
2022/01/20 03:49:52;;;;;;;9.02;1.88;;;;;;;;;;4913140;29;20536;-86
2022/01/20 03:52:17;;;;;;;13.35;2.00;;;;;;;;;;4938134;29;20028;-81
2022/01/20 03:54:43;;;;;;;11.35;1.48;;;;;;;;;;4938683;29;20063;-82
2022/01/20 03:57:09;;;;;;;15.77;2.60;;;;;;;;;;4918100;29;20024;-82
2022/01/20 03:59:34;;;;;;;21.02;2.30;;;;;;;;;;4918355;29;20024;-82
2022/01/20 04:02:00;;;;;;;13.48;1.90;;;;;;;;;;4918838;29;20024;-82
2022/01/20 04:04:29;;;;;;;14.15;1.52;;;;;;;;;;4917809;29;20482;-82
2022/01/20 04:06:55;;;;;;;8.45;1.67;;;;;;;;;;4916536;29;20035;-81
2022/01/20 04:09:20;;;;;;;14.82;2.65;;;;;;;;;;4915259;29;20025;-82
2022/01/20 04:11:47;;;;;;;11.13;2.08;;;;;;;;;;4933148;29;20027;-80
2022/01/20 04:14:23;;;;;;;22.20;1.98;;;;;;;;;;4915773;29;20036;-81
2022/01/20 04:19:27;;;;;;;16.23;1.80;;;;;;;;;;4932031;29;20020;-81
2022/01/20 04:21:53;;;;;;;20.58;1.65;;;;;;;;;;4913918;29;20051;-81
2022/01/20 04:24:19;;;;;;;15.98;2.80;;;;;;;;;;4914694;29;20055;-81
2022/01/20 04:26:45;;;;;;;7.45;1.73;;;;;;;;;;4914771;29;20028;-82
2022/01/20 04:29:11;;;;;;;9.43;2.42;;;;;;;;;;4913937;29;20088;-82
2022/01/20 04:31:37;;;;;;;11.00;1.88;;;;;;;;;;4916803;29;20039;-80
2022/01/20 04:34:07;;;;;;;13.70;2.28;;;;;;;;;;4934793;29;20136;-81
2022/01/20 04:36:36;;;;;;;14.80;1.85;;;;;;;;;;4916713;29;20024;-81
2022/01/20 04:39:06;;;;;;;17.45;1.95;;;;;;;;;;4932658;29;20024;-81
2022/01/20 04:41:36;;;;;;;11.00;1.90;;;;;;;;;;4934291;29;20084;-81
2022/01/20 04:44:03;;;;;;;15.98;2.30;;;;;;;;;;4935283;29;20027;-83
2022/01/20 04:47:11;;;;;;;16.70;2.63;;;;;;;;;;4936393;29;20075;-81
2022/01/20 04:57:32;;;;;;;11.27;3.03;;;;;;;;;;4931949;29;20048;-82
2022/01/20 04:59:58;;;;;;;10.88;2.25;;;;;;;;;;4936305;29;20020;-81
2022/01/20 05:02:26;;;;;;;8.05;1.75;;;;;;;;;;4919054;29;20020;-81
2022/01/20 05:04:55;;;;;;;17.73;2.42;;;;;;;;;;4919587;29;20047;-82
2022/01/20 05:07:24;;;;;;;;;;;;;;;;;;4936303;29;20020;-80
2022/01/20 05:09:51;;;;;;;11.52;1.85;;;;;;;;;;4918062;29;19907;-83
2022/01/20 05:12:23;;;;;;;17.17;2.70;;;;;;;;;;4916891;29;20091;-81
2022/01/20 05:14:49;;;;;;;19.65;2.50;;;;;;;;;;4918452;29;20028;-82
2022/01/20 05:17:15;;;;;;;12.52;2.10;;;;;;;;;;4915498;29;20052;-82
2022/01/20 05:19:42;;;;;;;11.82;2.65;;;;;;;;;;4911944;29;20024;-80
2022/01/20 05:22:08;;;;;;;12.15;2.13;;;;;;;;;;4911534;29;20016;-81
2022/01/20 05:24:33;;;;;;;18.63;2.38;;;;;;;;;;4912833;29;20020;-81
2022/01/20 05:26:59;;;;;;;14.32;2.33;;;;;;;;;;4933691;29;20020;-84
2022/01/20 05:29:25;;;;;;;17.85;2.38;;;;;;;;;;4930036;29;20024;-83
2022/01/20 05:31:50;;;;;;;13.73;1.92;;;;;;;;;;4918254;29;20163;-81
2022/01/20 05:34:16;;;;;;;10.60;2.53;;;;;;;;;;4916132;29;20020;-83
2022/01/20 05:36:42;;;;;;;13.85;2.20;;;;;;;;;;4933291;29;20048;-84
2022/01/20 05:39:08;;;;;;;13.40;2.55;;;;;;;;;;4919158;29;20040;-81
2022/01/20 05:41:39;;;;;;;16.17;2.70;;;;;;;;;;4922598;29;20016;-82
2022/01/20 05:44:05;;;;;;;19.25;2.60;;;;;;;;;;4924047;29;20024;-84
2022/01/20 05:46:37;;;;;;;11.75;2.00;;;;;;;;;;4941209;29;20025;-84
2022/01/20 05:49:11;;;;;;;13.68;1.80;;;;;;;;;;4922463;29;20036;-81
2022/01/20 05:51:43;;;;;;;22.80;2.97;;;;;;;;;;4918481;29;20100;-80
2022/01/20 05:54:09;;;;;;;11.68;2.35;;;;;;;;;;4913744;29;20016;-82
2022/01/20 05:56:35;;;;;;;14.23;2.55;;;;;;;;;;4916776;29;20051;-81
2022/01/20 05:59:04;;;;;;;16.65;2.25;;;;;;;;;;4934517;29;20045;-85
2022/01/20 06:01:36;;;;;;;9.77;1.73;;;;;;;;;;4917915;29;20046;-83
2022/01/20 06:04:06;;;;;;;12.85;2.20;;;;;;;;;;4938307;29;20056;-82
2022/01/20 06:06:32;;;;;;;14.00;1.98;;;;;;;;;;4922834;29;20083;-81
2022/01/20 06:08:59;;;;;;;16.67;2.20;;;;;;;;;;4922924;29;20020;-85
2022/01/20 06:11:27;;;;;;;18.23;3.20;;;;;;;;;;4923959;29;20028;-86
2022/01/20 06:13:55;;;;;;;14.88;2.42;;;;;;;;;;4919249;29;20020;-83
2022/01/20 06:16:23;;;;;;;15.60;2.05;;;;;;;;;;4921752;29;20031;-82
2022/01/20 06:18:49;;;;;;;12.30;2.58;;;;;;;;;;4939205;29;20043;-84
2022/01/20 06:21:18;;;;;;;16.13;1.98;;;;;;;;;;4920874;29;20548;-85
2022/01/20 06:23:46;;;;;;;11.52;1.92;;;;;;;;;;4936672;29;20036;-82
2022/01/20 06:26:12;;;;;;;9.98;1.60;;;;;;;;;;4936274;29;20016;-82
2022/01/20 06:28:40;;;;;;;7.30;1.63;;;;;;;;;;4936091;29;20063;-86
2022/01/20 06:31:13;;;;;;;14.88;2.22;;;;;;;;;;4937271;29;20035;-83
2022/01/20 06:33:38;;;;;;;9.88;1.83;;;;;;;;;;4921154;29;20031;-82
2022/01/20 06:36:07;;;;;;;11.90;1.85;;;;;;;;;;4938384;29;20000;-85
2022/01/20 06:38:33;;;;;;;7.70;1.80;;;;;;;;;;4922627;29;20055;-83
2022/01/20 06:40:58;;;;;;;11.95;1.20;;;;;;;;;;4923210;29;20481;-85
2022/01/20 06:43:28;;;;;;;9.18;1.10;;;;;;;;;;4922033;29;20020;-82
2022/01/20 06:45:56;;;;;;;9.48;1.20;;;;;;;;;;4918272;29;20028;-81
2022/01/20 06:48:22;;;;;;;9.57;1.25;;;;;;;;;;4913932;29;20052;-79
2022/01/20 06:50:48;;;;;;;5.78;1.45;;;;;;;;;;4929997;29;20060;-81
2022/01/20 06:53:16;;;;;;;6.35;1.30;;;;;;;;;;4932474;29;20024;-80
2022/01/20 06:55:42;;;;;;;13.25;1.50;;;;;;;;;;4935753;29;20031;-82
2022/01/20 06:58:11;;;;;;;11.18;1.92;;;;;;;;;;4920507;29;20024;-84
2022/01/20 07:00:37;;;;;;;16.52;2.00;;;;;;;;;;4921013;29;20028;-82
2022/01/20 07:03:02;;;;;;;5.25;1.40;;;;;;;;;;4939182;29;20024;-83
2022/01/20 07:05:29;;;;;;;7.22;1.25;;;;;;;;;;4940695;29;20027;-83
2022/01/20 07:07:54;;;;;;;16.90;2.50;;;;;;;;;;4940726;29;20008;-85
2022/01/20 07:10:21;;;;;;;21.05;2.63;;;;;;;;;;4939790;29;20052;-84
2022/01/20 07:12:56;;;;;;;19.88;2.72;;;;;;;;;;4925266;29;20096;-86
2022/01/20 07:15:30;;;;;;;14.27;2.53;;;;;;;;;;4924644;29;20031;-81
2022/01/20 07:17:56;;;;;;;21.95;1.90;;;;;;;;;;4923828;29;20544;-82
2022/01/20 07:20:25;;;;;;;11.75;1.23;;;;;;;;;;4924643;29;20035;-82
2022/01/20 07:22:57;;;;;;;15.27;1.58;;;;;;;;;;4924121;29;20012;-85
2022/01/20 07:25:23;;;;;;;16.63;1.92;;;;;;;;;;4940737;29;20044;-82
2022/01/20 07:28:01;;;;;;;18.52;3.38;;;;;;;;;;4941397;29;20019;-84
2022/01/20 07:30:35;;;;;;;21.73;2.13;;;;;;;;;;4924746;29;20039;-85
2022/01/20 07:33:10;;;;;;;10.90;2.03;;;;;;;;;;4940942;29;20047;-82
2022/01/20 07:35:43;;;;;;;16.23;1.85;;;;;;;;;;5051587;23;20058;-82
2022/01/20 07:38:09;;;;;;;13.05;1.50;;;;;;;;;;4938566;29;20052;-85
2022/01/20 07:40:36;;;;;;;13.57;1.95;;;;;;;;;;4939918;29;20040;-85
2022/01/20 07:43:09;;;;;;;16.83;1.70;;;;;;;;;;4924462;29;20051;-83
2022/01/20 07:45:42;;;;;;;17.50;2.67;;;;;;;;;;4924434;29;20407;-86
2022/01/20 07:48:12;;;;;;;10.02;2.35;;;;;;;;;;4924327;29;20028;-84
2022/01/20 07:50:39;;;;;;;13.02;1.38;;;;;;;;;;4941151;29;20003;-83
2022/01/20 07:53:07;;;;;;;8.77;1.38;;;;;;;;;;4924166;29;20022;-85
2022/01/20 07:55:36;;;;;;;14.70;1.98;;;;;;;;;;4924191;29;20028;-83
2022/01/20 07:58:26;;;;;;;8.88;1.73;;;;;;;;;;4924069;29;20009;-84
2022/01/20 08:00:53;;;;;;;9.65;1.65;;;;;;;;;;4925003;29;20020;-84
2022/01/20 08:03:20;;;;;;;10.85;1.67;;;;;;;;;;4922886;29;20020;-85
2022/01/20 08:05:53;;;;;;;14.68;1.70;;;;;;;;;;4923375;29;20036;-83
2022/01/20 08:08:23;;;;;;;11.07;2.20;;;;;;;;;;4940340;29;20008;-84
2022/01/20 08:11:16;;;;;;;12.82;1.98;;;;;;;;;;4921456;29;20031;-82
2022/01/20 08:14:01;;;;;;;17.23;1.95;;;;;;;;;;4922997;29;20043;-85
2022/01/20 08:16:46;;;;;;;15.63;1.50;;;;;;;;;;4924068;29;20024;-85
2022/01/20 08:19:15;;;;;;;15.77;2.25;;;;;;;;;;4940877;29;20020;-85
2022/01/20 08:21:47;;;;;;;;;;;;;;;;;;4924549;29;20028;-87
2022/01/20 08:24:19;;;;;;;10.13;1.45;;;;;;;;;;4940404;29;19902;-84
2022/01/20 08:26:52;;;;;;;7.25;1.58;;;;;;;;;;4923587;29;20024;-83
2022/01/20 08:29:29;;;;;;;10.13;2.10;;;;;;;;;;4923786;29;20034;-88
2022/01/20 08:32:02;;;;;;;10.35;1.30;;;;;;;;;;4923121;29;20031;-90
2022/01/20 08:34:30;;;;;;;12.25;2.20;;;;;;;;;;4922678;29;20032;-89
2022/01/20 08:37:01;;;;;;;12.73;1.48;;;;;;;;;;4923165;29;20088;-87
2022/01/20 08:42:01;;;;;;;5.88;1.95;;;;;;;;;;4941129;29;20008;-87
2022/01/20 08:44:31;;;;;;;3.92;1.27;;;;;;;;;;4923090;29;20000;-85
2022/01/20 08:47:01;;;;;;;12.50;1.85;;;;;;;;;;4923120;29;20016;-88
2022/01/20 08:49:30;;;;;;;9.70;1.67;;;;;;;;;;4923809;29;20012;-85
2022/01/20 08:51:59;;;;;;;;;;;;;;;;;;4923296;29;20132;-86
2022/01/20 08:54:25;;;;;;;15.05;1.55;;;;;;;;;;4923362;29;19910;-89
2022/01/20 08:56:53;;;;;;;15.73;2.35;;;;;;;;;;4921593;29;20024;-89
2022/01/20 08:59:28;;;;;;;8.73;1.98;;;;;;;;;;4922612;29;20024;-86
2022/01/20 09:01:58;;;;;;;14.55;1.63;;;;;;;;;;4922912;29;20064;-88
2022/01/20 09:04:26;;;;;;;5.53;1.52;;;;;;;;;;4922023;29;20031;-86
2022/01/20 09:06:54;;;;;;;10.18;1.75;;;;;;;;;;4921040;29;20024;-87
2022/01/20 09:09:21;;;;;;;6.75;0.93;;;;;;;;;;4920698;29;20035;-88
2022/01/20 09:12:04;;;;;;;14.68;1.85;;;;;;;;;;4925298;29;20028;-87
2022/01/20 09:17:18;;;;;;;10.40;1.60;;;;;;;;;;4944430;29;20142;-85
2022/01/20 09:19:52;;;;;;;12.53;1.60;;;;;;;;;;4927519;29;20039;-88
2022/01/20 09:22:20;;;;;;;10.05;1.63;;;;;;;;;;4927608;29;20251;-85
2022/01/20 09:25:27;;;;;;;;;;;;;;;;;;;;;
2022/01/20 09:28:02;;;;;;;15.82;2.08;;;;;;;;;;4943052;29;20055;-86
2022/01/20 09:30:57;;;;;;;12.85;1.58;;;;;;;;;;4927026;29;20072;-85
2022/01/20 09:33:27;;;;;;;7.15;1.30;;;;;;;;;;4926701;29;20060;-85
2022/01/20 09:35:53;;;;;;;10.43;1.30;;;;;;;;;;4923073;29;20039;-87
2022/01/20 09:38:20;;;;;;;13.77;1.58;;;;;;;;;;4919295;29;20032;-86
2022/01/20 09:40:45;;;;;;;9.18;1.80;;;;;;;;;;4935261;23;20098;-76
2022/01/20 09:43:14;;;;;;;11.00;2.22;;;;;;;;;;4938480;29;20019;-74
2022/01/20 09:45:39;;;;;;;11.18;1.90;;;;;;;;;;4938100;29;20107;-75
2022/01/20 09:48:04;;;;;;;9.63;1.48;;;;;;;;;;4921413;29;20118;-74
2022/01/20 09:50:30;;;;;;;11.98;2.47;;;;;;;;;;4905255;29;20096;-75
2022/01/20 09:52:59;;;;;;;14.15;2.05;;;;;;;;;;4902751;29;20409;-76
2022/01/20 09:55:24;;;;;;;22.20;3.53;;;;;;;;;;4919461;29;20024;-76
2022/01/20 09:57:49;;;;;;;9.88;1.90;;;;;;;;;;4902222;29;20055;-76
2022/01/20 10:00:16;;;;;;;16.75;2.13;;;;;;;;;;4919095;29;20151;-75
2022/01/20 10:02:55;;;;;;;13.20;1.75;;;;;;;;;;4918731;29;20095;-74
2022/01/20 10:05:39;;;;;;;10.27;2.05;;;;;;;;;;4917637;29;20024;-75
2022/01/20 10:08:07;;;;;;;14.93;2.75;;;;;;;;;;4918861;29;20079;-76
2022/01/20 10:10:39;;;;;;;14.02;1.70;;;;;;;;;;4902835;29;20021;-75
2022/01/20 10:13:05;;;;;;;12.88;1.63;;;;;;;;;;4904003;29;20049;-76
2022/01/20 10:15:31;;;;;;;11.50;2.05;;;;;;;;;;4922269;29;20436;-75
2022/01/20 10:18:25;;;;;;;13.63;3.22;;;;;;;;;;4904569;29;20510;-75
2022/01/20 10:20:52;;;;;;;14.93;1.95;;;;;;;;;;4921890;29;20036;-75
2022/01/20 10:23:37;;;;;;;12.05;1.73;;;;;;;;;;4923022;29;20020;-74
2022/01/20 10:26:14;;;;;;;9.15;1.45;;;;;;;;;;4922589;29;20020;-74
2022/01/20 10:28:47;;;;;;;10.23;1.60;;;;;;;;;;4923745;29;20056;-75
2022/01/20 10:31:12;;;;;;;11.85;1.48;;;;;;;;;;4925429;29;20031;-75
2022/01/20 10:33:43;;;;;;;10.30;1.88;;;;;;;;;;4929342;29;20020;-75
2022/01/20 10:36:10;;;;;;;14.90;1.85;;;;;;;;;;4927195;29;20020;-75
2022/01/20 10:38:35;;;;;;;14.27;3.17;;;;;;;;;;4928100;29;20024;-74
2022/01/20 10:41:00;;;;;;;10.80;1.73;;;;;;;;;;4929226;29;20035;-75
2022/01/20 10:43:31;;;;;;;10.85;1.95;;;;;;;;;;4926043;29;20031;-75
2022/01/20 10:46:16;;;;;;;11.98;2.08;;;;;;;;;;4909017;29;20024;-76
2022/01/20 10:48:42;;;;;;;11.70;2.00;;;;;;;;;;4933762;29;20028;-75
2022/01/20 10:51:16;;;;;;;9.80;1.50;;;;;;;;;;4929610;29;20319;-77
2022/01/20 10:53:42;;;;;;;8.95;1.70;;;;;;;;;;4912004;29;20020;-76
2022/01/20 10:56:07;;;;;;;14.00;2.80;;;;;;;;;;4913460;29;20024;-76
2022/01/20 10:58:32;;;;;;;11.70;1.70;;;;;;;;;;4927387;29;20071;-75
2022/01/20 11:01:07;;;;;;;14.23;2.60;;;;;;;;;;4926446;29;20501;-76
2022/01/20 11:03:35;;;;;;;8.73;1.63;;;;;;;;;;4924990;29;20468;-76
2022/01/20 11:06:00;;;;;;;25.27;2.35;;;;;;;;;;4926350;29;20024;-74
2022/01/20 11:08:26;;;;;;;14.10;1.60;;;;;;;;;;4907441;29;20083;-76
2022/01/20 11:10:52;;;;;;;26.50;2.60;;;;;;;;;;4911786;29;20024;-75
2022/01/20 11:13:28;;;;;;;10.85;1.90;;;;;;;;;;4909667;29;20028;-76
2022/01/20 11:15:53;;;;;;;10.00;1.83;;;;;;;;;;4908356;29;20485;-75
2022/01/20 11:18:18;;;;;;;13.48;1.60;;;;;;;;;;4925381;29;20020;-75
2022/01/20 11:20:49;;;;;;;9.13;1.55;;;;;;;;;;4923589;29;20020;-76
2022/01/20 11:23:14;;;;;;;14.65;2.58;;;;;;;;;;4926554;29;20484;-76
2022/01/20 11:25:40;;;;;;;22.67;2.83;;;;;;;;;;4930954;29;20020;-76
2022/01/20 11:28:08;;;;;;;9.73;2.03;;;;;;;;;;4935605;29;20489;-75
2022/01/20 11:30:35;;;;;;;6.72;1.40;;;;;;;;;;4925566;29;20024;-75
2022/01/20 11:33:14;;;;;;;10.43;2.20;;;;;;;;;;4906496;29;20020;-75
2022/01/20 11:35:45;;;;;;;17.52;2.50;;;;;;;;;;4925977;29;20015;-75
2022/01/20 11:38:11;;;;;;;12.57;2.08;;;;;;;;;;4907049;29;20024;-75
2022/01/20 11:40:57;;;;;;;14.95;2.20;;;;;;;;;;4920411;29;20092;-76
2022/01/20 11:43:40;;;;;;;8.07;1.85;;;;;;;;;;4931783;29;20091;-75
2022/01/20 11:46:11;;;;;;;13.88;2.45;;;;;;;;;;4924855;29;20024;-76
2022/01/20 11:48:47;;;;;;;16.92;2.45;;;;;;;;;;4926587;29;20033;-76
2022/01/20 11:51:13;;;;;;;24.05;4.10;;;;;;;;;;4905839;29;20100;-76
2022/01/20 11:53:42;;;;;;;12.32;1.98;;;;;;;;;;4918883;29;20039;-74
2022/01/20 11:56:07;;;;;;;;;;;;;;;;;;4903108;29;20049;-74
2022/01/20 11:58:32;;;;;;;11.60;1.77;;;;;;;;;;4902555;29;19914;-75
2022/01/20 12:00:59;;;;;;;7.28;2.03;;;;;;;;;;4903220;29;20013;-75
2022/01/20 12:03:25;;;;;;;14.93;2.53;;;;;;;;;;4916602;29;20023;-75
2022/01/20 12:06:01;;;;;;;12.00;2.42;;;;;;;;;;4906507;29;20169;-76
2022/01/20 12:08:29;;;;;;;13.07;2.13;;;;;;;;;;4922714;29;20052;-76
2022/01/20 12:10:57;;;;;;;15.95;2.13;;;;;;;;;;4903666;29;20051;-74
2022/01/20 12:13:32;;;;;;;6.65;2.10;;;;;;;;;;4907590;29;20079;-75
2022/01/20 12:16:00;;;;;;;8.43;1.75;;;;;;;;;;4901323;29;20020;-75
2022/01/20 12:18:28;;;;;;;10.63;1.60;;;;;;;;;;4917874;29;20098;-76
2022/01/20 12:20:54;;;;;;;8.93;1.55;;;;;;;;;;4917151;29;20103;-76
2022/01/20 12:23:20;;;;;;;11.15;1.83;;;;;;;;;;4920978;29;20048;-74
2022/01/20 12:25:46;;;;;;;12.13;2.10;;;;;;;;;;4919735;29;20024;-76
2022/01/20 12:28:12;;;;;;;16.80;2.40;;;;;;;;;;4916634;29;20087;-75
2022/01/20 12:30:40;;;;;;;16.75;1.98;;;;;;;;;;4899409;29;20028;-76
2022/01/20 12:33:14;;;;;;;5.63;1.50;;;;;;;;;;4916374;29;20059;-76
2022/01/20 12:35:48;;;;;;;9.98;1.45;;;;;;;;;;4916228;29;20266;-76
2022/01/20 12:38:14;;;;;;;10.55;1.35;;;;;;;;;;4899594;29;20051;-76
2022/01/20 12:40:39;;;;;;;15.63;2.95;;;;;;;;;;4917133;29;20032;-77
2022/01/20 12:43:05;;;;;;;12.02;1.48;;;;;;;;;;4918073;29;20020;-75
2022/01/20 12:48:15;;;;;;;6.68;1.15;;;;;;;;;;4921087;29;20036;-75
2022/01/20 12:50:49;;;;;;;23.05;2.55;;;;;;;;;;4919766;29;20401;-78
2022/01/20 12:53:16;;;;;;;10.65;1.38;;;;;;;;;;4920150;29;20517;-75
2022/01/20 12:55:49;;;;;;;8.20;1.40;;;;;;;;;;4919804;29;20025;-75
2022/01/20 12:58:14;;;;;;;6.18;1.55;;;;;;;;;;4918890;29;20021;-76
2022/01/20 13:00:40;;;;;;;12.25;1.65;;;;;;;;;;4920254;29;20028;-76
2022/01/20 13:03:05;;;;;;;15.23;1.60;;;;;;;;;;4920077;29;20027;-76
2022/01/20 13:05:32;;;;;;;11.95;1.40;;;;;;;;;;4919854;29;20028;-75
2022/01/20 13:07:58;;;;;;;13.38;2.33;;;;;;;;;;4919819;29;20039;-76
2022/01/20 13:10:32;;;;;;;15.63;2.17;;;;;;;;;;4903093;29;20032;-76
2022/01/20 13:13:19;;;;;;;13.48;2.13;;;;;;;;;;4920784;29;20060;-76
2022/01/20 13:15:46;;;;;;;16.40;1.90;;;;;;;;;;4925265;29;20057;-75
2022/01/20 13:18:12;;;;;;;15.27;1.55;;;;;;;;;;4922089;29;20020;-76
2022/01/20 13:20:41;;;;;;;8.68;1.50;;;;;;;;;;4919943;29;20103;-76
2022/01/20 13:23:54;;;;;;;15.35;2.83;;;;;;;;;;4919434;29;20066;-77
2022/01/20 13:26:02;;;;;;;6.80;1.38;;;;;;;;;;4919508;29;20496;-77
2022/01/20 13:28:28;;;;;;;11.23;1.85;;;;;;;;;;4902694;29;20079;-75
2022/01/20 13:30:53;;;;;;;20.60;1.95;;;;;;;;;;4919095;29;20024;-75
2022/01/20 13:33:18;;;;;;;14.93;2.45;;;;;;;;;;4919437;29;20024;-76
2022/01/20 13:35:45;;;;;;;12.38;1.80;;;;;;;;;;4919823;29;20035;-75
2022/01/20 13:38:11;;;;;;;10.95;1.70;;;;;;;;;;4919909;29;20023;-75
2022/01/20 13:40:37;;;;;;;14.98;1.77;;;;;;;;;;4919205;29;20032;-77
2022/01/20 13:45:49;;;;;;;12.70;2.15;;;;;;;;;;4918922;29;20173;-76
2022/01/20 13:48:23;;;;;;;19.08;2.67;;;;;;;;;;4918973;29;20107;-76
2022/01/20 13:50:53;;;;;;;12.20;1.83;;;;;;;;;;4919921;29;20035;-76
2022/01/20 13:53:21;;;;;;;10.35;1.27;;;;;;;;;;4905342;29;20024;-75
2022/01/20 13:55:50;;;;;;;13.77;2.03;;;;;;;;;;4906581;29;20050;-75
2022/01/20 13:58:22;;;;;;;9.50;1.60;;;;;;;;;;4926767;29;20020;-75
2022/01/20 14:00:48;;;;;;;7.35;1.27;;;;;;;;;;4919509;29;20060;-76
2022/01/20 14:03:16;;;;;;;10.45;1.48;;;;;;;;;;4922756;29;20028;-76
2022/01/20 14:05:41;;;;;;;11.93;2.08;;;;;;;;;;4919677;29;20016;-75
2022/01/20 14:08:06;;;;;;;10.52;1.48;;;;;;;;;;4920264;29;20059;-76
2022/01/20 14:10:32;;;;;;;9.10;2.00;;;;;;;;;;4919348;29;20111;-77
2022/01/20 14:12:58;;;;;;;8.57;1.92;;;;;;;;;;4901795;29;20026;-76
2022/01/20 14:15:27;;;;;;;13.65;1.70;;;;;;;;;;4919184;29;20024;-76
2022/01/20 14:17:54;;;;;;;7.15;1.33;;;;;;;;;;4901545;29;20027;-76
2022/01/20 14:20:23;;;;;;;14.07;1.80;;;;;;;;;;4902300;29;20111;-76
2022/01/20 14:22:48;;;;;;;8.27;2.10;;;;;;;;;;4918731;29;20016;-76
2022/01/20 14:25:13;;;;;;;14.38;2.00;;;;;;;;;;4918903;29;20555;-76
2022/01/20 14:27:39;;;;;;;6.45;1.25;;;;;;;;;;4926499;29;20027;-76
2022/01/20 14:30:06;;;;;;;7.53;1.55;;;;;;;;;;4918285;29;20025;-75
2022/01/20 14:32:31;;;;;;;16.52;1.70;;;;;;;;;;4918190;29;20107;-76
2022/01/20 14:34:56;;;;;;;7.68;2.15;;;;;;;;;;4918800;29;20048;-76
2022/01/20 14:37:22;;;;;;;15.13;1.80;;;;;;;;;;4901154;29;20075;-76
2022/01/20 14:39:47;;;;;;;15.02;2.03;;;;;;;;;;4918346;29;20020;-77
2022/01/20 14:42:14;;;;;;;9.80;1.58;;;;;;;;;;4918053;29;20023;-77
2022/01/20 14:44:39;;;;;;;13.98;3.72;;;;;;;;;;4918440;29;20032;-77
2022/01/20 14:47:05;;;;;;;8.68;1.25;;;;;;;;;;4918798;29;20024;-77
2022/01/20 14:49:37;;;;;;;13.35;2.33;;;;;;;;;;4901951;29;20035;-77
2022/01/20 14:52:03;;;;;;;13.20;1.60;;;;;;;;;;4918418;29;20024;-77
2022/01/20 14:54:28;;;;;;;13.23;2.00;;;;;;;;;;4918247;29;20107;-76
2022/01/20 14:56:54;;;;;;;6.53;1.25;;;;;;;;;;4917793;29;20508;-76
2022/01/20 14:59:19;;;;;;;9.10;2.28;;;;;;;;;;4917695;29;20020;-75
2022/01/20 15:01:44;;;;;;;6.85;1.48;;;;;;;;;;4917728;29;20016;-76
2022/01/20 15:04:09;;;;;;;8.88;1.88;;;;;;;;;;4917424;29;20090;-77
2022/01/20 15:06:35;;;;;;;13.20;1.85;;;;;;;;;;4917482;29;20020;-77
2022/01/20 15:09:01;;;;;;;10.88;1.40;;;;;;;;;;4916907;29;20020;-76
2022/01/20 15:11:26;;;;;;;10.38;1.50;;;;;;;;;;4900630;29;20035;-76
2022/01/20 15:13:52;;;;;;;10.18;1.20;;;;;;;;;;4917137;29;20028;-76
2022/01/20 15:16:17;;;;;;;5.43;0.98;;;;;;;;;;4916265;29;20067;-76
2022/01/20 15:18:42;;;;;;;9.00;1.35;;;;;;;;;;4899851;29;20359;-77
2022/01/20 15:21:07;;;;;;;9.40;1.75;;;;;;;;;;4900194;29;20066;-77
2022/01/20 15:23:33;;;;;;;3.85;1.00;;;;;;;;;;4899965;29;20027;-76
2022/01/20 15:26:01;;;;;;;12.85;2.00;;;;;;;;;;4917334;29;20476;-75
2022/01/20 15:28:30;;;;;;;13.88;1.58;;;;;;;;;;4899990;29;20061;-76
2022/01/20 15:30:56;;;;;;;11.95;1.60;;;;;;;;;;4899860;29;20485;-76
2022/01/20 15:33:21;;;;;;;7.93;1.35;;;;;;;;;;4916911;29;20035;-77
2022/01/20 15:35:46;;;;;;;7.60;1.20;;;;;;;;;;4917021;29;20040;-76
2022/01/20 15:38:11;;;;;;;6.85;0.98;;;;;;;;;;4917170;29;20025;-77
2022/01/20 15:40:37;;;;;;;5.93;1.15;;;;;;;;;;4944354;23;20055;-74
2022/01/20 15:43:02;;;;;;;11.30;1.48;;;;;;;;;;4935646;29;20100;-74
2022/01/20 15:45:27;;;;;;;3.85;0.70;;;;;;;;;;4936590;29;20074;-74
2022/01/20 15:47:52;;;;;;;11.13;1.05;;;;;;;;;;4935969;29;20102;-74
2022/01/20 15:50:18;;;;;;;5.28;1.15;;;;;;;;;;4924140;29;20020;-75